Time;durP1;ratioP1;P1;durP2;ratioP2;P2;SDS_P1;SDS_P2;PMS_P1;PMS_P2;Temp;Humidity;BMP_temperature;BMP_pressure;BME280_temperature;BME280_humidity;BME280_pressure;Samples;Min_cycle;Max_cycle;Signal;HPM_P1;HPM_P2
2021/05/08 00:00:50;;;;;;;7.72;5.75;;;6.60;82.10;;;;;;2096969;28;20651;-73
2021/05/08 00:01:51;;;;;;;6.68;5.57;;;6.60;82.00;;;;;;2088673;28;20566;-73
2021/05/08 00:02:52;;;;;;;6.97;5.80;;;6.60;81.80;;;;;;2089445;28;20028;-72
2021/05/08 00:03:52;;;;;;;5.90;5.30;;;6.60;81.70;;;;;;2096833;28;20025;-73
2021/05/08 00:04:53;;;;;;;5.88;5.10;;;6.60;81.70;;;;;;2088487;28;20020;-73
2021/05/08 00:05:54;;;;;;;5.90;5.28;;;6.60;81.90;;;;;;2080193;28;20105;-73
2021/05/08 00:06:56;;;;;;;6.40;5.05;;;6.50;81.90;;;;;;2080306;28;20079;-73
2021/05/08 00:07:57;;;;;;;5.30;4.78;;;6.50;82.10;;;;;;2087953;28;20068;-73
2021/05/08 00:08:57;;;;;;;6.82;5.40;;;6.50;82.40;;;;;;2079570;28;20036;-74
2021/05/08 00:09:58;;;;;;;6.40;5.32;;;6.50;82.70;;;;;;2088152;28;20036;-74
2021/05/08 00:10:59;;;;;;;6.53;5.50;;;6.40;82.70;;;;;;2088741;28;20500;-73
2021/05/08 00:11:59;;;;;;;6.82;5.60;;;6.40;82.80;;;;;;2088797;28;20404;-73
2021/05/08 00:13:00;;;;;;;7.07;5.53;;;6.40;82.80;;;;;;2088656;28;20035;-74
2021/05/08 00:14:01;;;;;;;6.88;5.72;;;6.40;83.00;;;;;;2087997;28;20032;-73
2021/05/08 00:15:03;;;;;;;8.05;5.75;;;6.40;82.80;;;;;;2088373;28;20487;-73
2021/05/08 00:16:04;;;;;;;7.28;5.30;;;6.40;82.60;;;;;;2088197;28;20037;-74
2021/05/08 00:17:06;;;;;;;6.72;5.80;;;6.40;82.50;;;;;;2087955;28;20033;-73
2021/05/08 00:18:07;;;;;;;7.47;6.10;;;6.40;82.40;;;;;;2088327;28;20500;-73
2021/05/08 00:19:07;;;;;;;7.63;6.22;;;6.40;82.20;;;;;;2088033;28;20029;-74
2021/05/08 00:20:13;;;;;;;7.05;6.10;;;6.40;82.00;;;;;;2082999;28;20041;-74
2021/05/08 00:21:13;;;;;;;6.57;5.88;;;6.40;81.60;;;;;;2093185;28;20401;-74
2021/05/08 00:22:14;;;;;;;7.10;5.90;;;6.40;81.40;;;;;;2088032;28;20048;-74
2021/05/08 00:23:15;;;;;;;7.18;5.70;;;6.40;81.30;;;;;;2088251;28;20909;-74
2021/05/08 00:24:16;;;;;;;6.30;5.47;;;6.40;81.30;;;;;;2088995;28;20428;-74
2021/05/08 00:25:16;;;;;;;6.68;5.90;;;6.40;81.30;;;;;;2088887;28;20021;-74
2021/05/08 00:26:17;;;;;;;6.32;5.60;;;6.40;81.30;;;;;;2088692;28;20081;-73
2021/05/08 00:27:17;;;;;;;6.20;5.40;;;6.40;81.30;;;;;;2089422;28;20519;-73
2021/05/08 00:28:18;;;;;;;7.30;6.20;;;6.40;81.40;;;;;;2087702;28;20108;-73
2021/05/08 00:29:19;;;;;;;7.30;5.93;;;6.40;81.60;;;;;;2089727;28;20032;-73
2021/05/08 00:30:20;;;;;;;6.93;5.90;;;6.40;81.30;;;;;;2089702;28;20463;-72
2021/05/08 00:31:20;;;;;;;6.90;5.72;;;6.40;81.10;;;;;;2089636;28;20074;-73
2021/05/08 00:32:21;;;;;;;8.18;5.90;;;6.40;81.30;;;;;;2090568;28;20021;-73
2021/05/08 00:33:22;;;;;;;7.43;5.85;;;6.40;81.40;;;;;;2090147;28;20048;-73
2021/05/08 00:34:22;;;;;;;6.90;5.90;;;6.40;81.50;;;;;;2090645;28;20040;-73
2021/05/08 00:35:23;;;;;;;8.63;5.88;;;6.30;81.90;;;;;;2091096;28;20032;-74
2021/05/08 00:36:24;;;;;;;7.13;5.90;;;6.30;82.30;;;;;;2090924;28;20505;-73
2021/05/08 00:37:24;;;;;;;7.10;6.35;;;6.30;82.60;;;;;;2089857;28;20032;-73
2021/05/08 00:38:25;;;;;;;7.38;5.93;;;6.30;81.90;;;;;;2089280;28;20472;-73
2021/05/08 00:39:26;;;;;;;7.72;6.35;;;6.30;81.80;;;;;;2086336;28;20078;-73
2021/05/08 00:40:26;;;;;;;8.50;6.13;;;6.30;81.90;;;;;;2092813;28;20021;-73
2021/05/08 00:41:27;;;;;;;9.18;6.38;;;6.30;82.50;;;;;;2089436;28;20031;-73
2021/05/08 00:42:28;;;;;;;8.55;5.93;;;6.30;82.60;;;;;;2089605;28;20899;-73
2021/05/08 00:43:29;;;;;;;7.35;6.18;;;6.30;82.50;;;;;;2089452;28;20017;-73
2021/05/08 00:44:30;;;;;;;7.57;6.00;;;6.40;81.20;;;;;;2089290;28;20021;-73
2021/05/08 00:45:32;;;;;;;6.80;6.10;;;6.40;81.20;;;;;;2087067;28;20119;-73
2021/05/08 00:46:33;;;;;;;7.50;5.80;;;6.40;81.10;;;;;;2091813;28;20025;-73
2021/05/08 00:47:42;;;;;;;7.43;6.10;;;6.30;81.20;;;;;;2089809;28;20057;-73
2021/05/08 00:48:43;;;;;;;9.13;6.25;;;6.30;81.50;;;;;;2089704;28;20043;-73
2021/05/08 00:49:45;;;;;;;6.93;6.22;;;6.30;81.70;;;;;;2089394;28;20036;-73
2021/05/08 00:50:46;;;;;;;9.23;6.10;;;6.30;81.90;;;;;;2081491;28;20473;-73
2021/05/08 00:51:48;;;;;;;6.35;5.72;;;6.30;81.50;;;;;;2090295;28;20029;-73
2021/05/08 00:52:50;;;;;;;8.02;5.68;;;6.30;81.70;;;;;;2091081;28;20033;-73
2021/05/08 00:53:52;;;;;;;7.00;5.93;;;6.30;81.80;;;;;;2090360;28;20027;-73
2021/05/08 00:54:54;;;;;;;6.75;5.47;;;6.30;81.70;;;;;;2082421;28;20033;-73
2021/05/08 00:55:55;;;;;;;8.70;6.10;;;6.20;82.00;;;;;;2074188;28;20034;-72
2021/05/08 00:56:56;;;;;;;7.57;5.97;;;6.20;82.40;;;;;;2081132;28;20071;-73
2021/05/08 00:57:57;;;;;;;8.85;6.38;;;6.20;82.80;;;;;;2088265;28;20064;-73
2021/05/08 00:58:58;;;;;;;7.88;5.90;;;6.20;83.50;;;;;;2091242;28;20400;-73
2021/05/08 00:59:58;;;;;;;7.10;6.07;;;6.20;83.10;;;;;;2097006;28;20088;-73
2021/05/08 01:00:59;;;;;;;7.60;5.80;;;6.20;83.40;;;;;;2089268;28;20036;-73
2021/05/08 01:02:02;;;;;;;7.40;5.80;;;6.20;83.50;;;;;;2082775;28;20021;-73
2021/05/08 01:03:06;;;;;;;6.65;5.65;;;6.10;83.00;;;;;;2089419;28;20428;-73
2021/05/08 01:04:08;;;;;;;7.88;5.70;;;6.10;82.90;;;;;;2089134;28;20028;-73
2021/05/08 01:05:09;;;;;;;7.22;5.80;;;6.10;82.30;;;;;;2089215;28;20025;-73
2021/05/08 01:06:10;;;;;;;6.72;5.60;;;6.10;81.90;;;;;;2089929;28;20483;-73
2021/05/08 01:07:11;;;;;;;6.63;5.40;;;6.10;82.10;;;;;;2089233;28;20024;-73
2021/05/08 01:08:13;;;;;;;6.22;5.22;;;6.10;82.30;;;;;;2083940;28;20215;-73
2021/05/08 01:09:15;;;;;;;7.00;5.90;;;6.10;82.70;;;;;;2094054;28;20128;-73
2021/05/08 01:10:15;;;;;;;7.90;6.13;;;6.10;83.30;;;;;;2080964;28;20055;-73
2021/05/08 01:11:20;;;;;;;8.05;6.07;;;6.10;83.10;;;;;;2081588;28;20017;-73
2021/05/08 01:12:21;;;;;;;8.25;6.00;;;6.10;82.80;;;;;;2089053;28;20091;-73
2021/05/08 01:13:22;;;;;;;8.15;6.20;;;6.10;82.50;;;;;;2089082;28;20040;-73
2021/05/08 01:14:23;;;;;;;8.10;6.15;;;6.10;82.20;;;;;;2089165;28;20031;-72
2021/05/08 01:15:26;;;;;;;8.10;6.10;;;6.10;82.70;;;;;;2089013;28;20021;-73
2021/05/08 01:16:27;;;;;;;7.88;6.05;;;6.10;83.10;;;;;;2089001;28;20021;-73
2021/05/08 01:17:29;;;;;;;8.10;6.00;;;6.10;82.50;;;;;;2089481;28;20032;-72
2021/05/08 01:18:31;;;;;;;7.38;6.00;;;6.10;81.70;;;;;;2086018;28;20110;-72
2021/05/08 01:19:33;;;;;;;7.22;5.72;;;6.10;81.50;;;;;;2091269;28;20476;-72
2021/05/08 01:20:34;;;;;;;8.40;6.30;;;6.10;81.70;;;;;;2080632;28;20036;-72
2021/05/08 01:21:37;;;;;;;7.03;5.78;;;6.10;81.40;;;;;;2088983;28;20021;-72
2021/05/08 01:22:39;;;;;;;7.70;6.60;;;6.10;81.10;;;;;;2089621;28;20024;-72
2021/05/08 01:23:40;;;;;;;8.23;6.40;;;6.10;80.40;;;;;;2089430;28;20035;-72
2021/05/08 01:24:41;;;;;;;8.45;6.18;;;6.10;79.80;;;;;;2088873;28;20017;-72
2021/05/08 01:25:42;;;;;;;8.35;6.20;;;6.10;79.50;;;;;;2087949;28;20104;-72
2021/05/08 01:26:43;;;;;;;6.60;5.60;;;6.10;79.70;;;;;;2080599;28;20444;-72
2021/05/08 01:27:53;;;;;;;7.07;5.72;;;6.10;79.80;;;;;;2081419;28;20025;-72
2021/05/08 01:28:54;;;;;;;7.38;6.00;;;6.10;80.20;;;;;;2072749;28;20037;-72
2021/05/08 01:29:55;;;;;;;7.38;5.90;;;6.20;80.10;;;;;;2072470;28;20481;-72
2021/05/08 01:30:55;;;;;;;7.47;6.03;;;6.20;80.00;;;;;;2080650;28;20100;-72
2021/05/08 01:31:56;;;;;;;9.43;6.20;;;6.20;80.10;;;;;;2088970;28;20052;-73
2021/05/08 01:32:57;;;;;;;7.80;5.97;;;6.20;80.80;;;;;;2080588;28;20500;-72
2021/05/08 01:34:00;;;;;;;10.43;5.82;;;6.20;80.80;;;;;;2089061;28;20554;-72
2021/05/08 01:35:01;;;;;;;8.13;5.80;;;6.20;80.40;;;;;;2089171;28;20036;-73
2021/05/08 01:36:02;;;;;;;8.30;6.15;;;6.20;79.90;;;;;;2089149;28;20039;-72
2021/05/08 01:37:03;;;;;;;8.90;6.40;;;6.20;80.10;;;;;;2089126;28;20056;-72
2021/05/08 01:38:05;;;;;;;8.27;6.00;;;6.20;79.60;;;;;;2080584;28;20064;-72
2021/05/08 01:39:07;;;;;;;7.55;6.20;;;6.30;79.60;;;;;;2089498;28;20017;-73
2021/05/08 01:40:13;;;;;;;8.80;5.90;;;6.20;79.80;;;;;;2089435;28;20024;-72
2021/05/08 01:41:15;;;;;;;7.63;5.70;;;6.20;79.60;;;;;;2085165;28;20025;-72
2021/05/08 01:42:16;;;;;;;6.43;5.60;;;6.20;79.40;;;;;;2093903;28;20017;-73
2021/05/08 01:43:17;;;;;;;7.60;5.60;;;6.20;79.60;;;;;;2090057;28;20480;-72
2021/05/08 01:44:18;;;;;;;6.43;5.32;;;6.20;80.00;;;;;;2089233;28;20056;-72
2021/05/08 01:45:21;;;;;;;7.60;5.95;;;6.20;79.90;;;;;;2089444;28;20798;-72
2021/05/08 01:46:22;;;;;;;7.13;6.00;;;6.10;80.20;;;;;;2080661;28;20025;-72
2021/05/08 01:47:23;;;;;;;7.93;6.18;;;6.10;79.60;;;;;;2072478;28;20678;-72
2021/05/08 01:48:25;;;;;;;6.35;5.60;;;6.20;79.20;;;;;;2088490;28;20108;-73
2021/05/08 01:49:26;;;;;;;6.20;5.32;;;6.10;79.30;;;;;;2088917;28;20028;-73
2021/05/08 01:50:28;;;;;;;8.48;6.30;;;6.10;79.70;;;;;;2080627;28;20023;-72
2021/05/08 01:51:28;;;;;;;6.90;6.00;;;6.10;80.00;;;;;;2085908;28;20025;-73
2021/05/08 01:52:29;;;;;;;6.80;5.38;;;6.10;80.00;;;;;;2088918;28;20017;-73
2021/05/08 01:53:30;;;;;;;7.40;5.68;;;6.10;80.10;;;;;;2080586;28;20018;-73
2021/05/08 01:54:31;;;;;;;6.72;5.35;;;6.10;79.60;;;;;;2088889;28;20025;-73
2021/05/08 01:55:32;;;;;;;6.50;5.38;;;6.10;79.60;;;;;;2088696;28;20025;-73
2021/05/08 01:56:38;;;;;;;7.47;5.55;;;6.10;79.70;;;;;;2088056;28;20029;-73
2021/05/08 01:57:46;;;;;;;9.02;6.03;;;6.00;79.70;;;;;;2089771;28;20061;-73
2021/05/08 01:58:46;;;;;;;7.30;5.60;;;6.00;80.10;;;;;;2089168;28;20040;-73
2021/05/08 01:59:47;;;;;;;9.20;6.30;;;6.00;79.30;;;;;;2088937;28;20453;-72
2021/05/08 02:00:49;;;;;;;7.82;6.07;;;6.00;79.00;;;;;;2088630;28;20025;-73
2021/05/08 02:01:50;;;;;;;6.75;5.53;;;6.00;78.70;;;;;;2089365;28;20025;-74
2021/05/08 02:02:53;;;;;;;7.72;5.55;;;6.00;78.80;;;;;;2088745;28;20491;-73
2021/05/08 02:03:59;;;;;;;7.50;5.40;;;6.00;79.40;;;;;;2088858;28;20016;-72
2021/05/08 02:05:00;;;;;;;6.53;5.38;;;6.00;80.00;;;;;;2081519;28;20041;-72
2021/05/08 02:06:02;;;;;;;7.75;5.30;;;6.00;80.20;;;;;;2088847;28;20017;-72
2021/05/08 02:07:41;;;;;;;6.28;5.32;;;6.00;80.60;;;;;;2088706;28;20024;-72
2021/05/08 02:08:42;;;;;;;6.15;4.90;;;5.90;81.00;;;;;;2088351;28;20029;-72
2021/05/08 02:09:46;;;;;;;6.75;5.32;;;5.90;81.30;;;;;;2088816;28;20013;-72
2021/05/08 02:10:46;;;;;;;9.82;6.18;;;5.90;82.00;;;;;;2088699;28;20056;-72
2021/05/08 02:11:47;;;;;;;8.18;6.18;;;5.90;82.90;;;;;;2080483;28;20033;-72
2021/05/08 02:12:48;;;;;;;9.60;6.13;;;5.80;83.60;;;;;;2088786;28;20484;-71
2021/05/08 02:13:49;;;;;;;6.43;5.57;;;5.80;83.20;;;;;;2088570;28;20467;-72
2021/05/08 02:14:50;;;;;;;7.38;5.60;;;5.80;82.10;;;;;;2080390;28;20025;-73
2021/05/08 02:15:50;;;;;;;8.52;6.10;;;5.80;81.70;;;;;;2080512;28;20021;-73
2021/05/08 02:16:51;;;;;;;8.02;6.00;;;5.80;81.80;;;;;;2080412;28;20017;-73
2021/05/08 02:17:53;;;;;;;7.57;5.60;;;5.80;82.20;;;;;;2088789;28;20040;-73
2021/05/08 02:18:54;;;;;;;7.65;5.70;;;5.80;82.30;;;;;;2088346;28;20029;-73
2021/05/08 02:19:55;;;;;;;7.60;6.15;;;5.80;82.50;;;;;;2088637;28;20132;-71
2021/05/08 02:20:56;;;;;;;9.05;5.95;;;5.80;82.70;;;;;;2088740;28;20455;-72
2021/05/08 02:21:58;;;;;;;7.40;5.97;;;5.80;82.50;;;;;;2089418;28;20028;-72
2021/05/08 02:23:02;;;;;;;7.97;5.95;;;5.80;82.40;;;;;;2088548;28;20017;-72
2021/05/08 02:24:05;;;;;;;6.93;5.50;;;5.80;82.20;;;;;;2090905;28;20062;-72
2021/05/08 02:25:08;;;;;;;6.63;5.55;;;5.80;81.70;;;;;;2095318;28;20025;-71
2021/05/08 02:26:08;;;;;;;6.90;5.78;;;5.80;80.70;;;;;;2089579;28;20047;-72
2021/05/08 02:27:09;;;;;;;6.55;5.60;;;5.80;81.40;;;;;;2092262;28;20087;-71
2021/05/08 02:28:11;;;;;;;7.30;5.38;;;5.80;81.00;;;;;;2091677;28;20107;-72
2021/05/08 02:29:11;;;;;;;7.38;5.53;;;5.80;80.50;;;;;;2089342;28;20028;-71
2021/05/08 02:30:15;;;;;;;6.07;5.10;;;5.80;80.30;;;;;;2089298;28;20025;-72
2021/05/08 02:31:16;;;;;;;6.97;5.40;;;5.80;80.20;;;;;;2088745;28;20032;-72
2021/05/08 02:32:17;;;;;;;7.38;5.43;;;5.80;80.30;;;;;;2088819;28;20040;-71
2021/05/08 02:33:17;;;;;;;6.97;4.95;;;5.80;80.60;;;;;;2088349;28;20101;-72
2021/05/08 02:34:19;;;;;;;7.00;5.40;;;5.80;80.50;;;;;;2088758;28;20028;-72
2021/05/08 02:35:21;;;;;;;6.57;5.07;;;5.80;80.30;;;;;;2088624;28;20136;-72
2021/05/08 02:36:22;;;;;;;7.43;5.45;;;5.80;80.20;;;;;;2088659;28;20032;-72
2021/05/08 02:37:23;;;;;;;5.78;5.18;;;5.80;80.30;;;;;;2088736;28;20045;-72
2021/05/08 02:38:24;;;;;;;5.65;5.03;;;5.80;80.40;;;;;;2088246;28;20509;-71
2021/05/08 02:39:25;;;;;;;5.95;5.00;;;5.80;80.70;;;;;;2077094;28;20018;-71
2021/05/08 02:40:31;;;;;;;7.20;5.43;;;5.80;81.80;;;;;;2075349;28;20084;-71
2021/05/08 02:41:33;;;;;;;5.72;5.03;;;5.80;80.90;;;;;;2086375;28;20472;-71
2021/05/08 02:42:35;;;;;;;5.97;4.80;;;5.80;80.80;;;;;;2080279;28;20018;-71
2021/05/08 02:43:36;;;;;;;5.90;5.20;;;5.80;80.80;;;;;;2072183;28;20524;-71
2021/05/08 02:44:44;;;;;;;7.03;5.00;;;5.80;81.10;;;;;;2081154;28;20592;-72
2021/05/08 02:45:45;;;;;;;6.25;4.95;;;5.80;81.20;;;;;;2080229;28;20060;-71
2021/05/08 02:46:46;;;;;;;5.78;4.70;;;5.90;81.10;;;;;;2080294;28;20018;-71
2021/05/08 02:47:49;;;;;;;5.38;4.80;;;5.90;80.90;;;;;;2088547;28;20496;-71
2021/05/08 02:48:50;;;;;;;5.28;4.65;;;5.90;80.80;;;;;;2088936;28;20024;-70
2021/05/08 02:49:54;;;;;;;5.57;4.95;;;5.90;80.80;;;;;;2080488;28;20052;-71
2021/05/08 02:50:54;;;;;;;5.30;4.70;;;5.90;80.50;;;;;;2089806;28;20534;-71
2021/05/08 02:51:55;;;;;;;5.30;4.80;;;5.90;80.60;;;;;;2089523;28;20021;-71
2021/05/08 02:52:56;;;;;;;5.25;4.60;;;5.90;80.50;;;;;;2081199;28;20596;-71
2021/05/08 02:53:57;;;;;;;8.05;5.15;;;5.90;80.50;;;;;;2080349;28;20029;-70
2021/05/08 02:54:58;;;;;;;5.10;4.60;;;6.00;80.60;;;;;;2079944;28;20112;-70
2021/05/08 02:55:59;;;;;;;6.20;5.00;;;6.00;80.30;;;;;;2088302;28;20052;-70
2021/05/08 02:57:06;;;;;;;6.10;4.90;;;6.00;80.20;;;;;;2080893;28;20421;-70
2021/05/08 02:58:07;;;;;;;6.10;5.00;;;6.00;80.20;;;;;;2086998;28;20052;-71
2021/05/08 02:59:10;;;;;;;5.90;4.97;;;6.10;80.20;;;;;;2088171;28;20845;-71
2021/05/08 03:00:16;;;;;;;5.95;5.03;;;6.10;80.00;;;;;;2088245;28;20029;-71
2021/05/08 03:01:17;;;;;;;6.32;5.15;;;6.20;80.00;;;;;;2088320;28;20082;-71
2021/05/08 03:02:18;;;;;;;5.43;4.90;;;6.20;80.00;;;;;;2079930;28;20112;-71
2021/05/08 03:03:19;;;;;;;5.30;4.80;;;6.20;80.10;;;;;;2079960;28;20025;-71
2021/05/08 03:04:23;;;;;;;6.28;5.05;;;6.30;80.30;;;;;;2088263;28;20122;-71
2021/05/08 03:05:24;;;;;;;6.03;5.00;;;6.30;79.30;;;;;;2079873;28;20471;-71
2021/05/08 03:06:28;;;;;;;6.57;5.30;;;6.30;78.90;;;;;;2088157;28;20156;-71
2021/05/08 03:07:28;;;;;;;7.47;5.60;;;6.40;78.40;;;;;;2079978;28;20029;-71
2021/05/08 03:08:29;;;;;;;8.48;5.40;;;6.40;77.80;;;;;;2079650;28;20021;-71
2021/05/08 03:09:33;;;;;;;6.25;5.63;;;6.40;77.70;;;;;;2088725;28;20472;-71
2021/05/08 03:10:34;;;;;;;6.22;5.40;;;6.50;76.40;;;;;;2088136;28;20021;-71
2021/05/08 03:11:35;;;;;;;7.53;5.60;;;6.50;76.50;;;;;;2088143;28;20749;-71
2021/05/08 03:12:37;;;;;;;7.80;5.40;;;6.40;76.40;;;;;;2079886;28;20033;-71
2021/05/08 03:13:38;;;;;;;6.93;5.53;;;6.50;76.50;;;;;;2088111;28;20020;-71
2021/05/08 03:14:39;;;;;;;6.93;4.93;;;6.50;76.10;;;;;;2088207;28;20128;-71
2021/05/08 03:15:40;;;;;;;6.18;5.10;;;6.50;76.10;;;;;;2088210;28;20044;-72
2021/05/08 03:16:43;;;;;;;6.30;5.38;;;6.50;75.70;;;;;;2080155;28;20026;-71
2021/05/08 03:17:44;;;;;;;6.00;5.40;;;6.50;75.10;;;;;;2088144;28;20033;-71
2021/05/08 03:18:45;;;;;;;6.35;5.20;;;6.50;74.90;;;;;;2087890;28;20025;-71
2021/05/08 03:19:46;;;;;;;6.20;5.60;;;6.60;74.90;;;;;;2079938;28;20028;-71
2021/05/08 03:20:47;;;;;;;6.32;5.40;;;6.60;75.60;;;;;;2088229;28;20060;-71
2021/05/08 03:21:48;;;;;;;6.40;5.20;;;6.60;76.00;;;;;;2088975;28;20110;-71
2021/05/08 03:22:49;;;;;;;6.05;5.45;;;6.60;76.40;;;;;;2088172;28;20082;-71
2021/05/08 03:23:50;;;;;;;6.88;5.35;;;6.60;76.50;;;;;;2088423;28;20393;-71
2021/05/08 03:24:51;;;;;;;6.72;6.03;;;6.60;76.60;;;;;;2097001;28;20104;-71
2021/05/08 03:25:51;;;;;;;8.00;5.85;;;6.60;75.40;;;;;;2088206;28;20021;-72
2021/05/08 03:26:52;;;;;;;6.30;5.30;;;6.60;75.40;;;;;;2080440;28;20021;-71
2021/05/08 03:27:53;;;;;;;5.50;4.93;;;6.60;75.70;;;;;;2093038;28;20040;-71
2021/05/08 03:28:56;;;;;;;6.03;5.40;;;6.60;76.00;;;;;;2079954;28;20848;-71
2021/05/08 03:29:57;;;;;;;8.20;5.63;;;6.60;76.70;;;;;;2088268;28;20025;-71
2021/05/08 03:30:58;;;;;;;6.00;5.40;;;6.60;76.30;;;;;;2088152;28;20032;-71
2021/05/08 03:31:59;;;;;;;7.72;5.80;;;6.50;77.20;;;;;;2088138;28;20104;-71
2021/05/08 03:33:00;;;;;;;6.78;5.47;;;6.50;75.90;;;;;;2087905;28;20059;-71
2021/05/08 03:34:00;;;;;;;7.05;5.60;;;6.50;76.00;;;;;;2088081;28;20029;-71
2021/05/08 03:35:02;;;;;;;7.45;5.65;;;6.50;76.10;;;;;;2088018;28;20025;-71
2021/05/08 03:36:04;;;;;;;6.57;5.40;;;6.50;77.20;;;;;;2088420;28;20025;-71
2021/05/08 03:37:05;;;;;;;6.78;5.00;;;6.50;76.40;;;;;;2088646;28;20024;-71
2021/05/08 03:38:06;;;;;;;6.78;5.05;;;6.40;76.70;;;;;;2087825;28;20021;-71
2021/05/08 03:39:07;;;;;;;6.55;5.57;;;6.40;77.30;;;;;;2087877;28;20087;-72
2021/05/08 03:40:08;;;;;;;5.70;5.10;;;6.40;77.10;;;;;;2088708;28;20082;-70
2021/05/08 03:41:09;;;;;;;7.03;6.20;;;6.30;77.20;;;;;;2088688;28;20055;-71
2021/05/08 03:42:09;;;;;;;7.68;6.32;;;6.30;76.40;;;;;;2088574;28;20141;-71
2021/05/08 03:43:10;;;;;;;9.52;6.43;;;6.30;76.10;;;;;;2088441;28;20473;-71
2021/05/08 03:44:11;;;;;;;6.70;6.03;;;6.30;76.30;;;;;;2088659;28;20459;-71
2021/05/08 03:45:12;;;;;;;7.28;6.00;;;6.30;76.40;;;;;;2088637;28;20384;-71
2021/05/08 03:46:13;;;;;;;6.85;5.50;;;6.20;76.70;;;;;;2088118;28;20139;-71
2021/05/08 03:47:14;;;;;;;6.95;5.70;;;6.20;76.80;;;;;;2088117;28;20017;-71
2021/05/08 03:48:15;;;;;;;6.90;5.50;;;6.20;76.80;;;;;;2087643;28;20036;-71
2021/05/08 03:49:16;;;;;;;6.00;5.40;;;6.20;77.00;;;;;;2088077;28;20549;-71
2021/05/08 03:50:16;;;;;;;5.63;4.97;;;6.20;77.10;;;;;;2087967;28;20055;-71
2021/05/08 03:51:17;;;;;;;5.50;4.90;;;6.20;77.20;;;;;;2088551;28;20543;-71
2021/05/08 03:52:18;;;;;;;6.35;5.35;;;6.10;77.50;;;;;;2088583;28;20103;-71
2021/05/08 03:53:21;;;;;;;6.70;5.20;;;6.10;77.60;;;;;;2088051;28;20039;-73
2021/05/08 03:54:21;;;;;;;5.30;4.80;;;6.10;78.00;;;;;;2084344;28;20108;-72
2021/05/08 03:55:22;;;;;;;5.57;4.88;;;6.10;77.90;;;;;;2092836;28;20033;-72
2021/05/08 03:56:23;;;;;;;6.10;5.32;;;6.10;77.90;;;;;;2088675;28;20021;-72
2021/05/08 03:57:23;;;;;;;6.57;5.15;;;6.10;78.20;;;;;;2087864;28;20059;-73
2021/05/08 03:58:28;;;;;;;6.78;5.97;;;6.10;78.40;;;;;;2086738;28;20032;-73
2021/05/08 03:59:29;;;;;;;7.63;6.75;;;6.10;78.80;;;;;;2088699;28;20033;-73
2021/05/08 04:00:29;;;;;;;7.07;6.30;;;6.10;77.60;;;;;;2088732;28;20021;-74
2021/05/08 04:01:30;;;;;;;6.97;6.28;;;6.10;77.20;;;;;;2088065;28;20028;-73
2021/05/08 04:02:30;;;;;;;7.50;6.70;;;6.10;77.30;;;;;;2079962;28;20029;-73
2021/05/08 04:03:31;;;;;;;7.35;6.40;;;6.20;77.20;;;;;;2087891;28;20021;-72
2021/05/08 04:04:32;;;;;;;9.02;6.43;;;6.20;77.20;;;;;;2088774;28;20021;-73
2021/05/08 04:05:32;;;;;;;7.18;5.80;;;6.20;77.10;;;;;;2088599;28;20070;-73
2021/05/08 04:06:33;;;;;;;7.38;6.40;;;6.20;77.00;;;;;;2088923;28;20025;-73
2021/05/08 04:07:33;;;;;;;7.20;6.35;;;6.30;77.60;;;;;;2090345;28;20107;-73
2021/05/08 04:08:34;;;;;;;6.93;6.10;;;6.20;77.70;;;;;;2089508;28;20115;-71
2021/05/08 04:09:35;;;;;;;8.43;6.90;;;6.20;77.30;;;;;;2089718;28;20029;-70
2021/05/08 04:10:35;;;;;;;7.60;6.80;;;6.30;77.10;;;;;;2090609;28;20456;-73
2021/05/08 04:11:37;;;;;;;9.00;6.20;;;6.30;75.80;;;;;;2090808;28;20031;-71
2021/05/08 04:12:37;;;;;;;8.65;6.70;;;6.30;76.00;;;;;;2089875;28;20576;-71
2021/05/08 04:13:38;;;;;;;8.60;6.40;;;6.40;76.80;;;;;;2089822;28;20032;-71
2021/05/08 04:14:38;;;;;;;8.27;6.80;;;6.50;76.30;;;;;;2090888;28;20122;-71
2021/05/08 04:15:39;;;;;;;8.02;6.28;;;6.80;75.90;;;;;;2090237;28;20491;-72
2021/05/08 04:16:40;;;;;;;7.70;6.25;;;7.00;75.10;;;;;;2089878;28;20098;-72
2021/05/08 04:17:40;;;;;;;7.55;6.10;;;7.20;74.60;;;;;;2097427;28;20647;-72
2021/05/08 04:18:41;;;;;;;7.05;6.22;;;7.30;74.00;;;;;;2091760;28;20060;-72
2021/05/08 04:19:41;;;;;;;7.30;6.22;;;7.50;73.00;;;;;;2090593;28;20024;-72
2021/05/08 04:20:45;;;;;;;7.55;5.93;;;7.60;72.50;;;;;;2097982;28;20024;-71
2021/05/08 04:21:46;;;;;;;6.35;5.75;;;7.70;72.20;;;;;;2090771;28;20036;-71
2021/05/08 04:22:46;;;;;;;5.80;5.20;;;7.90;71.80;;;;;;2089759;28;20438;-72
2021/05/08 04:23:47;;;;;;;6.25;5.20;;;8.10;71.30;;;;;;2089194;28;20063;-72
2021/05/08 04:24:48;;;;;;;5.80;5.15;;;8.40;70.10;;;;;;2081433;28;20022;-72
2021/05/08 04:25:48;;;;;;;6.20;5.10;;;8.70;68.90;;;;;;2081577;28;20026;-72
2021/05/08 04:26:49;;;;;;;6.60;5.35;;;8.90;67.70;;;;;;2089545;28;20025;-72
2021/05/08 04:27:49;;;;;;;5.93;4.80;;;9.20;66.90;;;;;;2086650;28;20039;-72
2021/05/08 04:28:50;;;;;;;5.88;4.85;;;9.50;65.80;;;;;;2089132;28;20491;-73
2021/05/08 04:29:51;;;;;;;5.95;4.80;;;9.70;64.60;;;;;;2090458;28;20064;-73
2021/05/08 04:30:51;;;;;;;5.25;4.75;;;9.90;63.40;;;;;;2089532;28;20025;-73
2021/05/08 04:31:52;;;;;;;5.07;4.53;;;10.10;62.30;;;;;;2081603;28;20512;-73
2021/05/08 04:32:53;;;;;;;5.28;4.78;;;10.30;61.40;;;;;;2089233;28;20033;-73
2021/05/08 04:33:53;;;;;;;5.10;4.60;;;10.50;60.70;;;;;;2081189;28;20029;-72
2021/05/08 04:34:54;;;;;;;5.32;4.32;;;10.70;60.20;;;;;;2090262;28;20033;-72
2021/05/08 04:35:54;;;;;;;5.13;4.57;;;10.80;59.50;;;;;;2089812;28;20075;-73
2021/05/08 04:36:55;;;;;;;5.95;4.60;;;11.00;59.00;;;;;;2090547;28;20741;-72
2021/05/08 04:38:03;;;;;;;6.03;4.43;;;11.20;58.50;;;;;;2090284;28;20080;-73
2021/05/08 04:39:04;;;;;;;6.32;4.65;;;11.40;57.90;;;;;;2092558;28;20393;-72
2021/05/08 04:40:06;;;;;;;7.15;4.45;;;11.50;57.10;;;;;;2095787;28;20021;-72
2021/05/08 04:41:07;;;;;;;5.70;4.78;;;11.70;56.40;;;;;;2089994;28;20025;-73
2021/05/08 04:42:08;;;;;;;5.70;4.40;;;11.80;55.80;;;;;;2089785;28;20551;-73
2021/05/08 04:43:09;;;;;;;6.43;4.50;;;11.90;55.50;;;;;;2089478;28;20036;-73
2021/05/08 04:44:09;;;;;;;4.93;4.40;;;12.10;55.00;;;;;;2090473;28;20373;-72
2021/05/08 04:45:10;;;;;;;4.75;4.30;;;12.20;54.80;;;;;;2090895;28;20025;-73
2021/05/08 04:46:11;;;;;;;4.18;3.80;;;12.30;54.50;;;;;;2090472;28;20057;-72
2021/05/08 04:47:13;;;;;;;5.22;4.30;;;12.40;54.20;;;;;;2090558;28;20017;-72
2021/05/08 04:48:24;;;;;;;5.00;4.43;;;12.50;54.10;;;;;;2089372;28;20025;-72
2021/05/08 04:49:26;;;;;;;4.63;4.20;;;12.60;53.80;;;;;;2089821;28;20439;-72
2021/05/08 04:50:27;;;;;;;4.70;4.30;;;12.70;52.90;;;;;;2089799;28;20396;-72
2021/05/08 04:51:28;;;;;;;5.03;4.47;;;12.80;52.60;;;;;;2090349;28;20033;-72
2021/05/08 04:52:28;;;;;;;5.57;4.30;;;12.90;52.30;;;;;;2090363;28;20064;-72
2021/05/08 04:53:29;;;;;;;6.22;4.40;;;13.00;52.10;;;;;;2089665;28;20055;-72
2021/05/08 04:54:30;;;;;;;4.63;4.07;;;13.00;52.20;;;;;;2089720;28;20029;-72
2021/05/08 04:55:30;;;;;;;6.60;4.50;;;13.10;51.90;;;;;;2089545;28;20064;-71
2021/05/08 04:56:31;;;;;;;4.72;4.18;;;13.20;51.50;;;;;;2089951;28;20025;-72
2021/05/08 04:57:32;;;;;;;5.10;4.40;;;13.30;51.40;;;;;;2089161;28;20021;-71
2021/05/08 04:58:32;;;;;;;4.85;4.40;;;13.30;51.30;;;;;;2088257;28;20090;-73
2021/05/08 04:59:33;;;;;;;5.55;4.47;;;13.40;51.00;;;;;;2089917;28;20021;-71
2021/05/08 05:00:34;;;;;;;5.90;4.63;;;13.40;50.70;;;;;;2089780;28;20021;-71
2021/05/08 05:01:34;;;;;;;5.70;4.32;;;13.50;50.60;;;;;;2089823;28;20053;-71
2021/05/08 05:02:35;;;;;;;4.97;4.47;;;13.60;50.30;;;;;;2089283;28;20448;-72
2021/05/08 05:03:36;;;;;;;4.85;4.40;;;13.60;50.00;;;;;;2095606;28;20033;-71
2021/05/08 05:04:37;;;;;;;5.13;4.63;;;13.70;49.40;;;;;;2091550;28;20040;-72
2021/05/08 05:05:38;;;;;;;4.97;4.00;;;13.70;49.10;;;;;;2089980;28;20021;-72
2021/05/08 05:06:38;;;;;;;4.95;4.40;;;13.80;48.90;;;;;;2089894;28;20039;-72
2021/05/08 05:07:43;;;;;;;5.97;4.50;;;13.90;48.90;;;;;;2089888;28;20041;-71
2021/05/08 05:08:44;;;;;;;5.30;4.40;;;13.90;48.90;;;;;;2096950;28;20017;-72
2021/05/08 05:09:45;;;;;;;5.35;4.63;;;14.00;48.70;;;;;;2090355;28;20532;-72
2021/05/08 05:10:52;;;;;;;5.65;4.88;;;14.10;48.50;;;;;;2089756;28;20033;-74
2021/05/08 05:11:52;;;;;;;5.72;4.82;;;14.20;48.30;;;;;;2090144;28;20111;-73
2021/05/08 05:12:54;;;;;;;5.72;4.80;;;14.30;48.00;;;;;;2089713;28;20025;-73
2021/05/08 05:13:54;;;;;;;5.65;4.20;;;14.40;47.60;;;;;;2089799;28;20065;-73
2021/05/08 05:14:55;;;;;;;5.15;4.65;;;14.40;47.30;;;;;;2089723;28;20025;-74
2021/05/08 05:15:56;;;;;;;4.97;4.30;;;14.50;47.30;;;;;;2089907;28;20027;-74
2021/05/08 05:16:56;;;;;;;6.25;4.35;;;14.60;47.40;;;;;;2089786;28;20021;-74
2021/05/08 05:17:57;;;;;;;7.15;4.97;;;14.70;47.10;;;;;;2089533;28;20116;-74
2021/05/08 05:18:58;;;;;;;5.97;4.90;;;14.80;47.20;;;;;;2087635;28;20028;-73
2021/05/08 05:19:58;;;;;;;7.95;6.05;;;14.90;47.00;;;;;;2089208;28;20020;-73
2021/05/08 05:20:59;;;;;;;7.70;5.88;;;15.00;46.60;;;;;;2089318;28;20024;-72
2021/05/08 05:21:59;;;;;;;7.95;5.63;;;15.10;46.30;;;;;;2089483;28;20511;-73
2021/05/08 05:23:00;;;;;;;5.85;5.00;;;15.20;46.10;;;;;;2089817;28;20027;-73
2021/05/08 05:24:00;;;;;;;6.22;4.90;;;15.30;45.90;;;;;;2089793;28;20039;-73